Austin, TX

11:32 PM CDT on June 02, 2015 (GMT -0500)
Clarksville | | Change Station
CLOSE
Current Station
Personal Weather Station
Location: Austin, TX
Elevation: 571 ft
Nearby Weather Stations

Elev 571 ft 30.28 °N, 97.75 °W | Updated 9 seconds ago

Clear
Clear
76.9 °F
Feels Like 79 °F
N
1.0
Wind Variable Wind from South
Gusts 1.0 mph

Today
High -- | Low -- °F
--% Chance of Precip.
Yesterday
High -- | Low -- °F
Precip. -- in
6:29 AM 8:28 PM
Full, 100% visible
Pressure 29.92 in
Visibility 10.0 miles
Clouds Clear
Heat Index 79 °F
Dew Point 67 °F
Humidity 72%
Rainfall in
Snow Depth Not available.
UV 0 out of 12
Pollen 4.60 out of 12
Air Quality Not available.
Flu Activity Local Activity
METAR KATT 030351Z AUTO 00000KT 10SM CLR 25/18 A2996 RMK AO2 SLP131 T02500183

More Conditions Fewer Conditions

Pressure 29.92 in
Visibility 10.0 miles
Clouds Clear
Heat Index 79 °F
Dew Point 67 °F
Humidity 72%
Rainfall in
Snow Depth Not available.
UV 0 out of 12
Pollen 4.60 out of 12
Air Quality Not available.
Flu Activity Local Activity
METAR KATT 030351Z AUTO 00000KT 10SM CLR 25/18 A2996 RMK AO2 SLP131 T02500183

More Conditions Fewer Conditions

10-Day Weather Forecast

×

Almanac

Astronomy

Jun. 02, 2015 Rise Set
Actual Time
Civil Twilight
Nautical Twilight
Astronomical Twilight
Moon
Length of Visible Light
Length of Day
Tomorrow will be .
, % of the Moon is Illuminated

Today's Extremes

State Highs State Lows

Community

WunderPhotos

Upload Photos

1,826,164 photos uploaded!

WunderBlogs® & News

Nearby

Air Quality

  Air Quality AQ Index Pollutant
Not available.

Snow Depth

Station Depth Elevation

Earthquake Activity

City Distance Mag. Time & Date
Minimum magnitude displayed is 2.5.

Coastal Water Temperatures

Place Temperature

Stations

Nearby Weather Stations

Station Location Temp. Windchill Dew Point Humidity Wind Precip. Elev Updated Type